Terminal Aerodrome Forecast
Issued by NWS

Current Version | Previous Version | Text Only | Print | Product List | Glossary On
Versions: 1 2 3 4 5 6 7 8 9 10 11 12
000
FTUS43 KLSX 201700
TAFUIN
TAF
KUIN 201731Z 2018/2118 21012G18KT P6SM SCT250
     FM210000 19007KT P6SM SCT120 BKN250
     FM211500 24008KT P6SM VCTS OVC050CB
      TEMPO 2115/2118 5SM -SHRA=

USA.gov is the U.S. government's official web portal to all federal, state and local government web resources and services.